createdAt,value
2017-08-24T00:00:53.945Z,6.73
2017-08-24T00:03:21.606Z,7.07
2017-08-24T00:05:49.510Z,6.27
2017-08-24T00:08:17.176Z,5.80
2017-08-24T00:10:45.034Z,7.30
2017-08-24T00:13:12.878Z,6.90
2017-08-24T00:15:40.743Z,6.93
2017-08-24T00:18:08.439Z,5.53
2017-08-24T00:20:36.283Z,6.50
2017-08-24T00:23:03.860Z,7.37
2017-08-24T00:25:31.633Z,6.80
2017-08-24T00:27:59.483Z,7.23
2017-08-24T00:30:27.201Z,8.10
2017-08-24T00:32:55.192Z,8.50
2017-08-24T00:35:22.888Z,8.80
2017-08-24T00:37:50.758Z,7.97
2017-08-24T00:40:18.831Z,8.20
2017-08-24T00:42:46.653Z,6.60
2017-08-24T00:45:14.473Z,7.17
2017-08-24T00:47:42.296Z,7.43
2017-08-24T00:50:10.295Z,7.77
2017-08-24T00:52:38.026Z,7.77
2017-08-24T00:55:05.813Z,7.03
2017-08-24T00:57:33.655Z,8.03
2017-08-24T01:00:01.475Z,6.57
2017-08-24T01:02:29.427Z,8.63
2017-08-24T01:04:57.261Z,7.60
2017-08-24T01:07:24.957Z,8.43
2017-08-24T01:09:52.601Z,8.23
2017-08-24T01:12:20.461Z,7.97
2017-08-24T01:14:48.147Z,7.17
2017-08-24T01:17:15.791Z,8.40
2017-08-24T01:19:43.375Z,8.50
2017-08-24T01:22:11.322Z,8.40
2017-08-24T01:24:39.033Z,7.33
2017-08-24T01:27:06.736Z,7.00
2017-08-24T01:29:34.702Z,7.90
2017-08-24T01:32:02.396Z,7.03
2017-08-24T01:34:30.112Z,6.50
2017-08-24T01:36:57.709Z,6.40
2017-08-24T01:39:25.772Z,6.80
2017-08-24T01:41:53.636Z,7.30
2017-08-24T01:44:21.498Z,7.33
2017-08-24T01:46:57.145Z,6.97
2017-08-24T01:49:24.864Z,7.80
2017-08-24T01:51:52.702Z,7.67
2017-08-24T01:54:20.697Z,7.83
2017-08-24T01:56:48.282Z,9.27
2017-08-24T01:59:15.897Z,8.63
2017-08-24T02:01:43.897Z,9.70
2017-08-24T02:04:11.635Z,6.90
2017-08-24T02:06:39.296Z,9.20
2017-08-24T02:09:07.198Z,9.43
2017-08-24T02:11:35.214Z,10.17
2017-08-24T02:14:02.895Z,8.20
2017-08-24T02:16:30.766Z,8.57
2017-08-24T02:18:58.492Z,8.43
2017-08-24T02:21:26.293Z,9.30
2017-08-24T02:23:54.156Z,9.00
2017-08-24T02:26:21.817Z,9.80
2017-08-24T02:28:49.478Z,8.60
2017-08-24T02:31:17.497Z,9.67
2017-08-24T02:33:45.216Z,8.77
2017-08-24T02:36:12.873Z,10.23
2017-08-24T02:38:40.952Z,9.30
2017-08-24T02:41:08.942Z,9.37
2017-08-24T02:43:36.791Z,12.37
2017-08-24T02:46:04.699Z,11.67
2017-08-24T02:48:32.623Z,12.47
2017-08-24T02:51:00.270Z,12.00
2017-08-24T02:53:28.274Z,13.90
2017-08-24T02:55:56.009Z,11.60
2017-08-24T02:58:23.670Z,11.87
2017-08-24T03:00:51.723Z,12.57
2017-08-24T03:03:19.414Z,12.00
2017-08-24T03:05:47.259Z,11.67
2017-08-24T03:08:15.334Z,13.07
2017-08-24T03:10:43.005Z,13.53
2017-08-24T03:13:10.835Z,12.40
2017-08-24T03:15:38.702Z,12.03
2017-08-24T03:18:06.714Z,11.93
2017-08-24T03:20:34.437Z,9.63
2017-08-24T03:23:02.240Z,10.97
2017-08-24T03:25:32.569Z,10.00
2017-08-24T03:28:01.034Z,12.47
2017-08-24T03:30:32.245Z,11.63
2017-08-24T03:33:00.443Z,9.77
2017-08-24T03:35:28.137Z,10.27
2017-08-24T03:37:57.358Z,10.83
2017-08-24T03:40:25.089Z,13.40
2017-08-24T03:42:52.969Z,15.40
2017-08-24T03:45:20.833Z,17.83
2017-08-24T03:47:48.666Z,17.80
2017-08-24T03:50:16.535Z,16.80
2017-08-24T03:52:44.435Z,16.50
2017-08-24T03:55:12.091Z,16.30
2017-08-24T03:57:39.692Z,14.77
2017-08-24T04:00:07.418Z,14.53
2017-08-24T04:02:35.077Z,12.97
2017-08-24T04:05:03.581Z,13.80
2017-08-24T04:07:31.423Z,12.37
2017-08-24T04:09:59.266Z,10.30
2017-08-24T04:12:26.955Z,11.80
2017-08-24T04:14:54.978Z,11.30
2017-08-24T04:17:22.693Z,8.00
2017-08-24T04:19:50.341Z,11.53
2017-08-24T04:22:18.219Z,10.80
2017-08-24T04:24:46.072Z,9.80
2017-08-24T04:27:13.939Z,7.73
2017-08-24T04:29:41.757Z,7.10
2017-08-24T04:32:09.690Z,7.90
2017-08-24T04:34:37.537Z,9.73
2017-08-24T04:37:05.482Z,6.50
2017-08-24T04:39:33.401Z,6.80
2017-08-24T04:42:01.362Z,6.27
2017-08-24T04:44:29.231Z,5.53
2017-08-24T04:46:56.950Z,6.03
2017-08-24T04:49:24.966Z,6.37
2017-08-24T04:51:52.809Z,6.07
2017-08-24T04:54:20.676Z,6.47
2017-08-24T04:56:48.359Z,8.63
2017-08-24T04:59:16.359Z,9.17
2017-08-24T05:01:44.203Z,10.00
2017-08-24T05:04:11.918Z,9.20
2017-08-24T05:06:39.614Z,8.77
2017-08-24T05:09:07.427Z,9.07
2017-08-24T05:11:35.271Z,8.53
2017-08-24T05:14:03.017Z,7.77
2017-08-24T05:16:30.852Z,8.00
2017-08-24T05:18:58.718Z,7.80
2017-08-24T05:21:26.525Z,8.17
2017-08-24T05:23:54.331Z,8.80
2017-08-24T05:26:22.354Z,8.00
2017-08-24T05:28:50.341Z,8.57
2017-08-24T05:31:18.160Z,10.30
2017-08-24T05:33:46.018Z,9.47
2017-08-24T05:36:13.890Z,7.57
2017-08-24T05:38:41.757Z,8.10
2017-08-24T05:41:09.550Z,8.47
2017-08-24T05:43:37.616Z,8.00
2017-08-24T05:46:05.698Z,7.50
2017-08-24T05:48:33.550Z,8.23
2017-08-24T05:51:01.638Z,6.70
2017-08-24T05:53:29.684Z,6.63
2017-08-24T05:55:57.551Z,7.07
2017-08-24T05:58:25.369Z,7.77
2017-08-24T06:00:53.100Z,6.63
2017-08-24T06:03:20.952Z,6.30
2017-08-24T06:05:49.048Z,8.13
2017-08-24T06:08:16.705Z,5.90
2017-08-24T06:10:44.367Z,5.40
2017-08-24T06:13:12.236Z,5.77
2017-08-24T06:15:39.890Z,3.77
2017-08-24T06:18:07.730Z,5.47
2017-08-24T06:20:35.597Z,4.10
2017-08-24T06:23:03.465Z,3.67
2017-08-24T06:25:31.362Z,3.67
2017-08-24T06:27:59.231Z,4.33
2017-08-24T06:30:27.041Z,4.90
2017-08-24T06:32:54.970Z,5.40
2017-08-24T06:35:23.001Z,6.13
2017-08-24T06:37:50.820Z,5.53
2017-08-24T06:40:18.567Z,5.23
2017-08-24T06:42:46.626Z,5.30
2017-08-24T06:45:14.301Z,7.20
2017-08-24T06:47:42.165Z,5.67
2017-08-24T06:50:10.110Z,6.63
2017-08-24T06:52:37.944Z,7.13
2017-08-24T06:55:05.563Z,5.70
2017-08-24T06:57:33.430Z,5.00
2017-08-24T07:00:01.267Z,5.17
2017-08-24T07:02:29.088Z,4.10
2017-08-24T07:04:56.881Z,3.63
2017-08-24T07:07:24.681Z,4.30
2017-08-24T07:09:52.421Z,3.47
2017-08-24T07:12:20.230Z,3.83
2017-08-24T07:14:48.049Z,2.77
2017-08-24T07:17:15.732Z,3.70
2017-08-24T07:19:43.467Z,3.30
2017-08-24T07:22:11.176Z,4.90
2017-08-24T07:24:38.752Z,4.07
2017-08-24T07:27:06.789Z,3.33
2017-08-24T07:29:34.656Z,2.90
2017-08-24T07:32:02.524Z,2.77
2017-08-24T07:34:30.564Z,2.97
2017-08-24T07:36:58.391Z,2.93
2017-08-24T07:39:26.328Z,2.20
2017-08-24T07:41:54.009Z,3.10
2017-08-24T07:44:21.737Z,2.70
2017-08-24T07:46:49.540Z,2.33
2017-08-24T07:49:17.566Z,2.20
2017-08-24T07:51:45.389Z,2.40
2017-08-24T07:54:12.983Z,2.50
2017-08-24T07:56:40.795Z,3.37
2017-08-24T07:59:08.540Z,2.00
2017-08-24T08:01:36.381Z,3.40
2017-08-24T08:04:04.030Z,1.83
2017-08-24T08:06:31.864Z,3.00
2017-08-24T08:08:59.709Z,2.33
2017-08-24T08:11:27.799Z,2.20
2017-08-24T08:13:55.519Z,2.80
2017-08-24T08:16:23.541Z,3.00
2017-08-24T08:18:51.607Z,3.10
2017-08-24T08:21:19.323Z,2.60
2017-08-24T08:23:47.338Z,3.90
2017-08-24T08:26:15.412Z,4.03
2017-08-24T08:28:43.350Z,3.30
2017-08-24T08:31:11.145Z,2.40
2017-08-24T08:33:39.080Z,2.90
2017-08-24T08:36:06.922Z,3.33
2017-08-24T08:38:34.951Z,2.50
2017-08-24T08:41:02.959Z,2.30
2017-08-24T08:43:30.802Z,3.07
2017-08-24T08:45:58.551Z,2.50
2017-08-24T08:48:26.340Z,2.80
2017-08-24T08:50:54.154Z,2.53
2017-08-24T08:53:22.001Z,2.23
2017-08-24T08:55:49.958Z,2.87
2017-08-24T08:58:17.783Z,2.70
2017-08-24T09:00:45.615Z,2.80
2017-08-24T09:03:13.413Z,2.70
2017-08-24T09:05:41.357Z,2.53
2017-08-24T09:08:09.107Z,2.57
2017-08-24T09:10:36.767Z,3.27
2017-08-24T09:13:04.583Z,2.10
2017-08-24T09:15:32.427Z,3.40
2017-08-24T09:18:00.309Z,2.93
2017-08-24T09:20:27.965Z,2.80
2017-08-24T09:22:55.802Z,2.93
2017-08-24T09:25:23.495Z,2.80
2017-08-24T09:27:51.216Z,3.40
2017-08-24T09:30:19.244Z,2.73
2017-08-24T09:32:47.067Z,3.53
2017-08-24T09:35:14.937Z,3.07
2017-08-24T09:37:42.625Z,2.63
2017-08-24T09:40:10.703Z,2.67
2017-08-24T09:42:38.774Z,2.47
2017-08-24T09:45:06.638Z,4.00
2017-08-24T09:47:34.503Z,2.93
2017-08-24T09:50:02.216Z,2.80
2017-08-24T09:52:30.037Z,3.27
2017-08-24T09:54:57.806Z,3.20
2017-08-24T09:57:25.564Z,2.80
2017-08-24T09:59:53.415Z,2.57
2017-08-24T10:02:21.405Z,2.10
2017-08-24T10:04:49.372Z,2.20
2017-08-24T10:07:17.237Z,2.90
2017-08-24T10:09:45.305Z,2.63
2017-08-24T10:12:12.970Z,2.53
2017-08-24T10:14:40.992Z,3.33
2017-08-24T10:17:08.704Z,3.73
2017-08-24T10:19:36.552Z,2.63
2017-08-24T10:22:04.419Z,2.43
2017-08-24T10:24:32.287Z,2.93
2017-08-24T10:27:00.153Z,2.17
2017-08-24T10:29:28.076Z,2.57
2017-08-24T10:31:56.114Z,2.73
2017-08-24T10:34:23.697Z,2.40
2017-08-24T10:36:51.500Z,2.43
2017-08-24T10:39:19.362Z,3.20
2017-08-24T10:41:47.376Z,2.67
2017-08-24T10:44:15.225Z,2.33
2017-08-24T10:46:42.907Z,2.93
2017-08-24T10:49:10.758Z,3.30
2017-08-24T10:51:38.608Z,2.50
2017-08-24T10:54:06.623Z,3.07
2017-08-24T10:56:34.562Z,3.00
2017-08-24T10:59:02.230Z,2.70
2017-08-24T11:01:29.901Z,2.50
2017-08-24T11:03:57.642Z,2.87
2017-08-24T11:06:25.429Z,2.40
2017-08-24T11:08:53.329Z,2.90
2017-08-24T11:11:22.188Z,3.17
2017-08-24T11:13:50.034Z,2.37
2017-08-24T11:16:17.976Z,4.23
2017-08-24T11:18:45.599Z,2.70
2017-08-24T11:21:13.314Z,2.35
2017-08-24T11:23:41.318Z,2.75
2017-08-24T11:26:09.170Z,2.30
2017-08-24T11:28:37.037Z,2.63
2017-08-24T11:31:04.882Z,2.97
2017-08-24T11:33:32.694Z,2.40
2017-08-24T11:36:00.307Z,2.17
2017-08-24T11:38:28.131Z,2.57
2017-08-24T11:40:55.951Z,2.45
2017-08-24T11:43:23.918Z,2.40
2017-08-24T11:45:51.809Z,6.73
2017-08-24T11:48:19.676Z,2.90
2017-08-24T11:50:47.543Z,2.30
2017-08-24T11:53:15.456Z,1.67
2017-08-24T11:55:43.478Z,2.80
2017-08-24T11:58:11.346Z,2.60
2017-08-24T12:00:39.021Z,2.83
2017-08-24T12:03:06.881Z,3.80
2017-08-24T12:05:34.599Z,2.23
2017-08-24T12:08:02.320Z,2.00
2017-08-24T12:10:30.262Z,2.90
2017-08-24T12:12:58.127Z,2.90
2017-08-24T12:15:25.993Z,2.30
2017-08-24T12:17:53.861Z,2.80
2017-08-24T12:20:21.728Z,2.53
2017-08-24T12:22:49.421Z,2.93
2017-08-24T12:25:17.080Z,2.37
2017-08-24T12:27:44.809Z,2.40
2017-08-24T12:30:12.817Z,2.62
2017-08-24T12:32:40.662Z,2.90
2017-08-24T12:35:08.531Z,3.45
2017-08-24T12:37:36.209Z,3.72
2017-08-24T12:40:04.045Z,2.40
2017-08-24T12:42:31.946Z,1.98
2017-08-24T12:44:59.977Z,2.42
2017-08-24T12:47:27.884Z,2.17
2017-08-24T12:49:55.813Z,2.43
2017-08-24T12:52:23.805Z,2.60
2017-08-24T12:54:51.479Z,2.63
2017-08-24T12:57:19.538Z,2.17
2017-08-24T12:59:47.406Z,2.62
2017-08-24T13:02:15.273Z,2.60
2017-08-24T13:04:43.140Z,2.40
2017-08-24T13:07:11.184Z,3.00
2017-08-24T13:09:39.075Z,2.97
2017-08-24T13:12:06.962Z,3.20
2017-08-24T13:14:34.977Z,3.07
2017-08-24T13:17:02.877Z,3.53
2017-08-24T13:19:30.744Z,4.27
2017-08-24T13:21:58.611Z,3.70
2017-08-24T13:24:26.407Z,3.10
2017-08-24T13:26:54.224Z,3.23
2017-08-24T13:29:22.235Z,3.40
2017-08-24T13:31:50.082Z,3.07
2017-08-24T13:34:17.947Z,3.70
2017-08-24T13:36:46.042Z,2.90
2017-08-24T13:39:13.704Z,2.80
2017-08-24T13:41:41.430Z,3.20
2017-08-24T13:44:09.233Z,2.87
2017-08-24T13:46:36.888Z,4.43
2017-08-24T13:49:04.725Z,4.17
2017-08-24T13:51:32.419Z,2.70
2017-08-24T13:54:00.165Z,2.53
2017-08-24T13:56:28.104Z,2.67
2017-08-24T13:58:56.072Z,3.67
2017-08-24T14:01:23.892Z,2.90
2017-08-24T14:03:51.730Z,3.10
2017-08-24T14:06:19.624Z,4.50
2017-08-24T14:08:47.286Z,3.43
2017-08-24T14:11:15.132Z,3.53
2017-08-24T14:13:43.000Z,2.80
2017-08-24T14:16:10.693Z,3.03
2017-08-24T14:18:38.411Z,3.47
2017-08-24T14:21:06.418Z,3.40
2017-08-24T14:23:34.016Z,3.70
2017-08-24T14:26:01.862Z,3.60
2017-08-24T14:28:29.753Z,3.47
2017-08-24T14:30:57.573Z,3.33
2017-08-24T14:33:25.388Z,2.83
2017-08-24T14:35:53.255Z,2.47
2017-08-24T14:38:21.123Z,3.43
2017-08-24T14:40:48.943Z,2.90
2017-08-24T14:43:16.981Z,2.67
2017-08-24T14:45:44.622Z,3.70
2017-08-24T14:48:12.338Z,3.57
2017-08-24T14:50:40.332Z,2.70
2017-08-24T14:53:08.067Z,2.80
2017-08-24T14:55:35.940Z,2.90
2017-08-24T14:58:03.934Z,2.60
2017-08-24T15:00:31.716Z,3.03
2017-08-24T15:02:59.536Z,3.50
2017-08-24T15:05:27.613Z,3.67
2017-08-24T15:07:55.454Z,2.93
2017-08-24T15:10:23.132Z,3.47
2017-08-24T15:12:50.774Z,2.73
2017-08-24T15:15:18.464Z,3.50
2017-08-24T15:17:46.126Z,3.43
2017-08-24T15:20:13.993Z,5.83
2017-08-24T15:22:41.703Z,3.40
2017-08-24T15:25:09.727Z,3.50
2017-08-24T15:27:37.601Z,3.20
2017-08-24T15:30:05.434Z,3.67
2017-08-24T15:32:33.329Z,3.83
2017-08-24T15:35:00.972Z,3.70
2017-08-24T15:37:28.561Z,3.77
2017-08-24T15:39:56.315Z,3.57
2017-08-24T15:42:23.981Z,3.00
2017-08-24T15:44:51.809Z,3.43
2017-08-24T15:47:19.507Z,4.33
2017-08-24T15:49:47.343Z,3.30
2017-08-24T15:52:15.085Z,3.30
2017-08-24T15:54:43.007Z,3.30
2017-08-24T15:57:10.824Z,3.80
2017-08-24T15:59:38.433Z,3.47
2017-08-24T16:02:06.298Z,3.40
2017-08-24T16:04:34.157Z,3.70
2017-08-24T16:07:01.829Z,4.83
2017-08-24T16:09:29.656Z,8.93
2017-08-24T16:11:57.526Z,2.90
2017-08-24T16:14:25.219Z,3.60
2017-08-24T16:16:53.235Z,4.83
2017-08-24T16:19:20.951Z,4.23
2017-08-24T16:21:48.771Z,5.27
2017-08-24T16:24:16.639Z,5.03
2017-08-24T16:26:44.661Z,4.43
2017-08-24T16:29:12.375Z,3.83
2017-08-24T16:31:40.396Z,7.10
2017-08-24T16:34:08.257Z,7.17
2017-08-24T16:36:36.098Z,8.87
2017-08-24T16:39:03.799Z,8.60
2017-08-24T16:41:31.755Z,8.80
2017-08-24T16:43:59.580Z,25.23
2017-08-24T16:46:27.596Z,9.90
2017-08-24T16:48:55.253Z,7.13
2017-08-24T16:51:22.919Z,7.70
2017-08-24T16:53:50.810Z,4.93
2017-08-24T16:56:18.650Z,7.43
2017-08-24T16:58:46.311Z,6.30
2017-08-24T17:01:13.966Z,6.20
2017-08-24T17:03:41.634Z,4.80
2017-08-24T17:06:09.300Z,5.77
2017-08-24T17:08:36.962Z,6.60
2017-08-24T17:11:04.670Z,6.17
2017-08-24T17:13:32.262Z,6.70
2017-08-24T17:16:00.124Z,5.73
2017-08-24T17:18:28.016Z,5.60
2017-08-24T17:20:55.747Z,4.90
2017-08-24T17:23:23.386Z,5.50
2017-08-24T17:25:51.396Z,5.67
2017-08-24T17:28:19.285Z,12.23
2017-08-24T17:30:46.885Z,8.57
2017-08-24T17:33:14.608Z,6.57
2017-08-24T17:35:42.411Z,6.00
2017-08-24T17:38:10.139Z,8.07
2017-08-24T17:40:37.803Z,5.87
2017-08-24T17:43:05.515Z,5.20
2017-08-24T17:45:33.101Z,6.37
2017-08-24T17:48:00.782Z,5.90
2017-08-24T17:50:28.492Z,6.30
2017-08-24T17:52:56.427Z,5.53
2017-08-24T17:55:24.144Z,5.60
2017-08-24T17:57:51.950Z,5.00
2017-08-24T18:00:19.783Z,6.53
2017-08-24T18:02:47.555Z,5.13
2017-08-24T18:05:15.138Z,5.60
2017-08-24T18:07:43.057Z,6.23
2017-08-24T18:10:10.827Z,5.37
2017-08-24T18:12:38.461Z,5.77
2017-08-24T18:15:06.096Z,5.50
2017-08-24T18:17:34.165Z,6.20
2017-08-24T18:20:01.828Z,5.50
2017-08-24T18:22:30.177Z,6.27
2017-08-24T18:24:57.851Z,6.17
2017-08-24T18:27:25.488Z,5.37
2017-08-24T18:29:53.456Z,5.67
2017-08-24T18:32:21.353Z,6.00
2017-08-24T18:34:49.149Z,6.57
2017-08-24T18:37:17.088Z,6.00
2017-08-24T18:39:45.031Z,5.53
2017-08-24T18:42:13.041Z,6.73
2017-08-24T18:44:40.710Z,8.17
2017-08-24T18:47:08.635Z,6.83
2017-08-24T18:49:36.596Z,6.00
2017-08-24T18:52:04.417Z,6.10
2017-08-24T18:54:32.167Z,6.70
2017-08-24T18:56:59.831Z,6.70
2017-08-24T18:59:27.489Z,7.03
2017-08-24T19:01:55.403Z,6.47
2017-08-24T19:04:23.021Z,6.97
2017-08-24T19:06:50.684Z,6.60
2017-08-24T19:09:18.376Z,8.07
2017-08-24T19:11:46.005Z,8.57
2017-08-24T19:14:13.717Z,7.07
2017-08-24T19:16:41.436Z,7.70
2017-08-24T19:19:09.202Z,6.93
2017-08-24T19:21:37.041Z,6.73
2017-08-24T19:24:05.139Z,7.23
2017-08-24T19:26:32.974Z,6.73
2017-08-24T19:29:00.677Z,5.83
2017-08-24T19:31:28.742Z,7.80
2017-08-24T19:33:56.808Z,7.20
2017-08-24T19:36:24.393Z,6.93
2017-08-24T19:38:52.042Z,6.80
2017-08-24T19:41:19.855Z,6.40
2017-08-24T19:43:47.725Z,6.40
2017-08-24T19:46:15.519Z,5.93
2017-08-24T19:48:43.192Z,7.20
2017-08-24T19:51:10.856Z,6.60
2017-08-24T19:53:38.912Z,6.73
2017-08-24T19:56:06.591Z,6.67
2017-08-24T19:58:34.522Z,7.20
2017-08-24T20:01:02.288Z,7.73
2017-08-24T20:03:30.151Z,7.23
2017-08-24T20:05:58.017Z,8.00
2017-08-24T20:08:25.889Z,8.67
2017-08-24T20:10:53.711Z,7.37
2017-08-24T20:13:21.449Z,6.60
2017-08-24T20:15:50.186Z,7.60
2017-08-24T20:18:17.784Z,6.40
2017-08-24T20:20:46.479Z,7.67
2017-08-24T20:23:14.557Z,6.80
2017-08-24T20:25:42.211Z,6.90
2017-08-24T20:28:09.877Z,7.10
2017-08-24T20:30:37.511Z,8.30
2017-08-24T20:33:05.122Z,7.30
2017-08-24T20:35:32.724Z,9.23
2017-08-24T20:38:00.530Z,7.60
2017-08-24T20:40:28.260Z,8.13
2017-08-24T20:42:56.224Z,7.33
2017-08-24T20:45:23.965Z,7.90
2017-08-24T20:47:51.592Z,7.50
2017-08-24T20:50:19.252Z,18.87
2017-08-24T20:52:47.035Z,7.20
2017-08-24T20:55:14.649Z,6.43
2017-08-24T20:57:42.241Z,7.93
2017-08-24T21:00:09.880Z,7.90
2017-08-24T21:02:37.563Z,7.70
2017-08-24T21:05:05.275Z,8.50
2017-08-24T21:07:33.300Z,8.33
2017-08-24T21:10:01.168Z,7.37
2017-08-24T21:12:28.814Z,9.10
2017-08-24T21:14:56.684Z,7.60
2017-08-24T21:17:24.410Z,8.83
2017-08-24T21:19:52.220Z,8.10
2017-08-24T21:22:20.079Z,7.57
2017-08-24T21:24:47.750Z,8.83
2017-08-24T21:27:15.454Z,7.13
2017-08-24T21:29:43.476Z,8.47
2017-08-24T21:32:11.151Z,7.47
2017-08-24T21:34:38.979Z,8.10
2017-08-24T21:37:07.082Z,8.30
2017-08-24T21:39:34.913Z,8.20
2017-08-24T21:42:02.614Z,8.10
2017-08-24T21:44:30.273Z,8.07
2017-08-24T21:46:57.939Z,8.20
2017-08-24T21:49:25.593Z,8.70
2017-08-24T21:51:53.470Z,8.23
2017-08-24T21:54:21.263Z,9.00
2017-08-24T21:56:49.197Z,7.60
2017-08-24T21:59:16.864Z,9.03
2017-08-24T22:01:44.490Z,8.13
2017-08-24T22:04:12.200Z,8.13
2017-08-24T22:06:40.050Z,9.30
2017-08-24T22:09:07.704Z,8.93
2017-08-24T22:11:35.688Z,8.03
2017-08-24T22:14:03.622Z,8.13
2017-08-24T22:16:31.308Z,10.20
2017-08-24T22:18:58.982Z,8.60
2017-08-24T22:21:27.049Z,8.60
2017-08-24T22:23:54.766Z,7.47
2017-08-24T22:26:22.404Z,8.40
2017-08-24T22:28:50.400Z,9.40
2017-08-24T22:31:18.096Z,9.07
2017-08-24T22:33:46.179Z,8.10
2017-08-24T22:36:14.255Z,9.10
2017-08-24T22:38:42.560Z,9.37
2017-08-24T22:41:10.155Z,9.10
2017-08-24T22:43:39.750Z,9.87
2017-08-24T22:46:07.548Z,9.00
2017-08-24T22:48:35.150Z,10.50
2017-08-24T22:51:03.095Z,9.23
2017-08-24T22:53:36.286Z,10.80
2017-08-24T22:56:09.473Z,11.80
2017-08-24T22:58:42.875Z,9.67
2017-08-24T23:01:16.426Z,9.57
2017-08-24T23:03:49.876Z,10.40
2017-08-24T23:06:17.743Z,9.90
2017-08-24T23:08:45.448Z,11.17
2017-08-24T23:11:13.460Z,7.83
2017-08-24T23:13:41.528Z,7.60
2017-08-24T23:16:09.370Z,8.63
2017-08-24T23:18:37.074Z,8.33
2017-08-24T23:21:05.005Z,8.17
2017-08-24T23:23:32.994Z,8.40
2017-08-24T23:26:00.790Z,7.87
2017-08-24T23:28:28.631Z,9.17
2017-08-24T23:30:56.278Z,8.90
2017-08-24T23:33:24.258Z,8.30
2017-08-24T23:35:52.330Z,8.70
2017-08-24T23:38:20.122Z,8.33
2017-08-24T23:40:48.081Z,8.03
2017-08-24T23:43:15.948Z,8.07
2017-08-24T23:45:43.727Z,8.23
2017-08-24T23:48:11.472Z,6.83
2017-08-24T23:50:39.409Z,9.00
2017-08-24T23:53:07.431Z,10.43
2017-08-24T23:55:35.165Z,8.63
2017-08-24T23:58:03.151Z,9.10
